East Blacksea — T2ZH3 — position and weather

sailwx.info

Track history (hours):
 
Tides and Currents Weather Stations Pressure Air Temp Water Temp Dewpoint Dewpoint Depression Visibility Wind Speed Wind Dir Waves Ship Positions

East Blacksea

Last reported at 2014-Oct-31 14:33 UTC. Time now 2014-Oct-31 15:07 UTC.
Position N 40°45' E 029°19'.

Length 69 m; draft 2.6 m.

Type: Cargo ship. MMSI: 572341210.

Date/timePositionNaut miles runAvg speedWind from/ knotsBaromVisibWave heightAir tempDewpointWater temp
2014-Oct-31 14:33N 40°45' E 029°19'8 0.3
2014-Oct-30 14:09N 40°45' E 029°29'6 9.2
2014-Oct-30 13:32N 40°44' E 029°22'8 7.9
2014-Oct-30 12:33N 40°47' E 029°12'10 8.7
2014-Oct-30 11:27N 40°50' E 029°01'7 7.8
2014-Oct-30 10:33N 40°57' E 028°57'27 2.1
2014-Oct-29 21:33N 41°18' E 029°21'8 7.8
2014-Oct-29 20:33N 41°19' E 029°31'  
2014-Oct-23 18:33N 44°33' E 037°42'9 8.9
2014-Oct-23 17:33N 44°40' E 037°50'5 4.4
2014-Oct-23 16:30N 44°44' E 037°47'0 0.0
2014-Oct-23 15:30N 44°44' E 037°47'0 0.0
2014-Oct-23 14:30N 44°44' E 037°47'0 0.0
2014-Oct-23 13:30N 44°44' E 037°47'0 0.0
2014-Oct-23 12:33N 44°44' E 037°47'0 0.0
2014-Oct-23 11:30N 44°44' E 037°47'0 0.0
2014-Oct-23 10:30N 44°44' E 037°47'0 0.0
2014-Oct-23 09:33N 44°44' E 037°47'0 0.0
2014-Oct-23 08:30N 44°44' E 037°47'0 0.0
2014-Oct-23 07:33N 44°44' E 037°47'0 0.0
2014-Oct-23 06:33N 44°44' E 037°47'0 0.0
2014-Oct-23 05:33N 44°44' E 037°47'0 0.0
2014-Oct-23 04:33N 44°44' E 037°47'0 0.0
2014-Oct-23 03:33N 44°44' E 037°47'0 0.0
2014-Oct-23 02:30N 44°44' E 037°47'0 0.0
2014-Oct-23 01:33N 44°44' E 037°47'0 0.0
2014-Oct-23 00:33N 44°44' E 037°47'0 0.0
2014-Oct-22 23:33N 44°44' E 037°47'0 0.0
2014-Oct-22 22:33N 44°44' E 037°47'0 0.0
2014-Oct-22 21:33N 44°44' E 037°47'0 0.0
2014-Oct-22 20:33N 44°44' E 037°47'0 0.0
2014-Oct-22 19:33N 44°44' E 037°47'0 0.0
2014-Oct-22 18:33N 44°44' E 037°47'0 0.0
2014-Oct-22 17:33N 44°44' E 037°47'0 0.0
2014-Oct-22 16:33N 44°44' E 037°47'0 0.0
2014-Oct-22 15:33N 44°44' E 037°47'0 0.0
2014-Oct-22 14:33N 44°44' E 037°47'0 0.0
2014-Oct-22 13:33N 44°44' E 037°47'0 0.0
2014-Oct-22 12:33N 44°44' E 037°47'0 0.0
2014-Oct-22 11:33N 44°44' E 037°47'0 0.0
2014-Oct-22 10:33N 44°44' E 037°47'0 0.0
2014-Oct-22 09:34N 44°44' E 037°47'1 1.4
2014-Oct-22 08:34N 44°43' E 037°48'6 5.7
2014-Oct-22 07:34N 44°38' E 037°52'2 1.6
2014-Oct-22 06:34N 44°39' E 037°54'1 0.5
2014-Oct-22 05:31N 44°39' E 037°54'0 0.0
2014-Oct-22 04:31N 44°39' E 037°54'0 0.0
2014-Oct-22 03:31N 44°39' E 037°54'0 0.0
2014-Oct-22 02:31N 44°39' E 037°54'0 0.0
2014-Oct-22 01:31N 44°39' E 037°54'0 0.0
2014-Oct-22 00:31N 44°39' E 037°54'6 5.8
2014-Oct-21 23:33N 44°34' E 037°52'12 9.8
2014-Oct-21 22:19N 44°24' E 038°01'  
Track history (hours):
 
Tides and Currents Weather Stations Pressure Air Temp Water Temp Dewpoint Dewpoint Depression Visibility Wind Speed Wind Dir Waves Ship Positions

East Blacksea

Last reported at 2014-Oct-31 14:33 UTC. Time now 2014-Oct-31 15:07 UTC.
Position N 40°45' E 029°19'.

Length 69 m; draft 2.6 m.

Type: Cargo ship. MMSI: 572341210.

Date/timePositionNaut miles runAvg speedWind from/ knotsBaromVisibWave heightAir tempDewpointWater temp
2014-Oct-31 14:33N 40°45' E 029°19'8 0.3
2014-Oct-30 14:09N 40°45' E 029°29'6 9.2
2014-Oct-30 13:32N 40°44' E 029°22'8 7.9
2014-Oct-30 12:33N 40°47' E 029°12'10 8.7
2014-Oct-30 11:27N 40°50' E 029°01'7 7.8
2014-Oct-30 10:33N 40°57' E 028°57'27 2.1
2014-Oct-29 21:33N 41°18' E 029°21'8 7.8
2014-Oct-29 20:33N 41°19' E 029°31'  
2014-Oct-23 18:33N 44°33' E 037°42'9 8.9
2014-Oct-23 17:33N 44°40' E 037°50'5 4.4
2014-Oct-23 16:30N 44°44' E 037°47'0 0.0
2014-Oct-23 15:30N 44°44' E 037°47'0 0.0
2014-Oct-23 14:30N 44°44' E 037°47'0 0.0
2014-Oct-23 13:30N 44°44' E 037°47'0 0.0
2014-Oct-23 12:33N 44°44' E 037°47'0 0.0
2014-Oct-23 11:30N 44°44' E 037°47'0 0.0
2014-Oct-23 10:30N 44°44' E 037°47'0 0.0
2014-Oct-23 09:33N 44°44' E 037°47'0 0.0
2014-Oct-23 08:30N 44°44' E 037°47'0 0.0
2014-Oct-23 07:33N 44°44' E 037°47'0 0.0
2014-Oct-23 06:33N 44°44' E 037°47'0 0.0
2014-Oct-23 05:33N 44°44' E 037°47'0 0.0
2014-Oct-23 04:33N 44°44' E 037°47'0 0.0
2014-Oct-23 03:33N 44°44' E 037°47'0 0.0
2014-Oct-23 02:30N 44°44' E 037°47'0 0.0
2014-Oct-23 01:33N 44°44' E 037°47'0 0.0
2014-Oct-23 00:33N 44°44' E 037°47'0 0.0
2014-Oct-22 23:33N 44°44' E 037°47'0 0.0
2014-Oct-22 22:33N 44°44' E 037°47'0 0.0
2014-Oct-22 21:33N 44°44' E 037°47'0 0.0
2014-Oct-22 20:33N 44°44' E 037°47'0 0.0
2014-Oct-22 19:33N 44°44' E 037°47'0 0.0
2014-Oct-22 18:33N 44°44' E 037°47'0 0.0
2014-Oct-22 17:33N 44°44' E 037°47'0 0.0
2014-Oct-22 16:33N 44°44' E 037°47'0 0.0
2014-Oct-22 15:33N 44°44' E 037°47'0 0.0
2014-Oct-22 14:33N 44°44' E 037°47'0 0.0
2014-Oct-22 13:33N 44°44' E 037°47'0 0.0
2014-Oct-22 12:33N 44°44' E 037°47'0 0.0
2014-Oct-22 11:33N 44°44' E 037°47'0 0.0
2014-Oct-22 10:33N 44°44' E 037°47'0 0.0
2014-Oct-22 09:34N 44°44' E 037°47'1 1.4
2014-Oct-22 08:34N 44°43' E 037°48'6 5.7
2014-Oct-22 07:34N 44°38' E 037°52'2 1.6
2014-Oct-22 06:34N 44°39' E 037°54'1 0.5
2014-Oct-22 05:31N 44°39' E 037°54'0 0.0
2014-Oct-22 04:31N 44°39' E 037°54'0 0.0
2014-Oct-22 03:31N 44°39' E 037°54'0 0.0
2014-Oct-22 02:31N 44°39' E 037°54'0 0.0
2014-Oct-22 01:31N 44°39' E 037°54'0 0.0
2014-Oct-22 00:31N 44°39' E 037°54'6 5.8
2014-Oct-21 23:33N 44°34' E 037°52'12 9.8
2014-Oct-21 22:19N 44°24' E 038°01'  

Dump ship's entire track history